createdAt,value
2023-11-07T00:09:01.660Z,6.46
2023-11-07T00:29:24.153Z,6.28
2023-11-07T00:39:26.833Z,6.05
2023-11-07T00:49:29.204Z,6.04
2023-11-07T00:59:31.009Z,5.94
2023-11-07T01:09:32.842Z,5.65
2023-11-07T01:19:34.842Z,5.52
2023-11-07T01:29:37.084Z,5.44
2023-11-07T01:39:38.859Z,5.34
2023-11-07T01:49:40.905Z,5.23
2023-11-07T01:59:42.811Z,5.27
2023-11-07T02:09:44.701Z,5.33
2023-11-07T02:19:46.582Z,5.20
2023-11-07T02:29:49.069Z,4.99
2023-11-07T02:39:50.812Z,4.95
2023-11-07T02:49:53.239Z,4.92
2023-11-07T02:59:55.133Z,4.93
2023-11-07T03:09:57.124Z,4.96
2023-11-07T03:19:58.942Z,4.99
2023-11-07T03:30:00.803Z,5.13
2023-11-07T03:40:04.673Z,5.06
2023-11-07T03:50:07.227Z,4.86
2023-11-07T04:00:11.611Z,5.08
2023-11-07T04:10:14.316Z,5.37
2023-11-07T04:20:17.564Z,5.63
2023-11-07T04:30:19.309Z,5.78
2023-11-07T04:40:21.001Z,5.90
2023-11-07T04:50:22.829Z,6.24
2023-11-07T05:00:25.227Z,6.58
2023-11-07T05:10:26.900Z,6.73
2023-11-07T05:20:29.006Z,6.93
2023-11-07T05:30:31.949Z,7.15
2023-11-07T05:40:33.637Z,7.21
2023-11-07T05:50:35.495Z,7.34
2023-11-07T06:00:37.458Z,7.52
2023-11-07T06:10:39.132Z,7.67
2023-11-07T06:20:41.017Z,7.68
2023-11-07T06:30:43.774Z,7.83
2023-11-07T06:40:45.510Z,7.91
2023-11-07T06:50:47.565Z,8.01
2023-11-07T07:00:49.312Z,8.35
2023-11-07T07:10:54.051Z,8.57
2023-11-07T07:20:56.470Z,9.14
2023-11-07T07:31:01.071Z,9.66
2023-11-07T07:41:03.345Z,9.95
2023-11-07T07:51:07.766Z,9.71
2023-11-07T08:01:11.114Z,10.07
2023-11-07T08:11:14.489Z,10.43
2023-11-07T08:21:16.384Z,10.80
2023-11-07T08:31:18.138Z,11.25
2023-11-07T08:41:19.888Z,11.11
2023-11-07T08:51:21.785Z,10.62
2023-11-07T09:01:24.868Z,10.77
2023-11-07T09:11:26.561Z,11.59
2023-11-07T09:21:28.626Z,12.34
2023-11-07T09:31:30.294Z,12.59
2023-11-07T09:41:31.960Z,12.19
2023-11-07T09:51:37.079Z,12.54
2023-11-07T10:01:39.163Z,12.79
2023-11-07T10:11:51.224Z,12.26
2023-11-07T10:21:53.532Z,11.87
2023-11-07T10:32:11.317Z,11.60
2023-11-07T10:42:20.664Z,11.46
2023-11-07T10:52:22.678Z,11.55
2023-11-07T11:02:27.229Z,12.31
2023-11-07T11:12:29.494Z,13.49
2023-11-07T11:22:44.516Z,13.94
2023-11-07T11:33:06.511Z,14.14
2023-11-07T11:43:08.372Z,14.00
2023-11-07T11:53:10.526Z,13.91
2023-11-07T12:03:17.780Z,14.01
2023-11-07T12:13:24.366Z,14.03
2023-11-07T12:23:27.564Z,13.97
2023-11-07T12:33:41.229Z,14.11
2023-11-07T12:43:45.724Z,14.26
2023-11-07T12:53:50.142Z,14.16
2023-11-07T13:03:51.954Z,14.07
2023-11-07T13:13:53.718Z,14.03
2023-11-07T13:23:55.435Z,13.76
2023-11-07T13:33:57.307Z,13.54
2023-11-07T13:43:59.698Z,13.15
2023-11-07T13:54:01.535Z,12.89
2023-11-07T14:04:03.693Z,12.35
2023-11-07T14:14:06.363Z,11.86
2023-11-07T14:24:08.953Z,11.48
2023-11-07T14:34:11.539Z,11.25
2023-11-07T14:44:13.957Z,11.23
2023-11-07T14:54:15.849Z,11.04
2023-11-07T15:04:18.032Z,10.37
2023-11-07T15:14:19.764Z,9.65
2023-11-07T15:24:21.613Z,9.25
2023-11-07T15:34:23.470Z,9.23
2023-11-07T15:44:25.132Z,9.29
2023-11-07T15:54:27.213Z,9.49
2023-11-07T16:04:29.488Z,9.54
2023-11-07T16:14:33.391Z,9.48
2023-11-07T16:24:35.141Z,9.51
2023-11-07T16:34:37.152Z,9.64
2023-11-07T16:44:41.089Z,9.64
2023-11-07T16:54:43.136Z,9.54
2023-11-07T17:04:45.952Z,9.43
2023-11-07T17:14:47.702Z,9.53
2023-11-07T17:24:49.444Z,9.71
2023-11-07T17:34:55.348Z,9.76
2023-11-07T17:44:57.529Z,9.67
2023-11-07T17:54:59.357Z,9.73
2023-11-07T18:05:01.226Z,9.73
2023-11-07T18:15:05.260Z,9.64
2023-11-07T18:25:07.489Z,9.70
2023-11-07T18:35:09.551Z,9.73
2023-11-07T18:45:11.934Z,9.59
2023-11-07T18:55:14.149Z,9.47
2023-11-07T19:05:16.521Z,9.50
2023-11-07T19:15:18.251Z,9.25
2023-11-07T19:25:20.724Z,8.66
2023-11-07T19:35:22.517Z,8.21
2023-11-07T19:45:24.275Z,8.18
2023-11-07T19:55:28.225Z,8.29
2023-11-07T20:05:29.938Z,8.44
2023-11-07T20:15:31.688Z,8.63
2023-11-07T20:25:33.501Z,8.61
2023-11-07T20:35:40.218Z,8.57
2023-11-07T20:45:41.963Z,8.70
2023-11-07T20:55:43.678Z,8.62
2023-11-07T21:05:45.816Z,8.52
2023-11-07T21:15:47.496Z,8.54
2023-11-07T21:25:49.272Z,8.44
2023-11-07T21:35:50.979Z,8.34
2023-11-07T21:45:53.249Z,8.39
2023-11-07T21:55:56.112Z,8.28
2023-11-07T22:05:59.779Z,7.83
2023-11-07T22:16:01.484Z,7.18
2023-11-07T22:26:03.318Z,6.49
2023-11-07T22:36:06.833Z,6.09
2023-11-07T22:46:08.741Z,5.83
2023-11-07T22:56:10.622Z,5.63
2023-11-07T23:06:12.361Z,5.33
2023-11-07T23:16:14.144Z,5.03
2023-11-07T23:26:16.231Z,4.96
2023-11-07T23:36:18.836Z,4.91
2023-11-07T23:46:20.618Z,4.82
2023-11-07T23:56:23.080Z,4.56
